Time;durP1;ratioP1;P1;durP2;ratioP2;P2;SDS_P1;SDS_P2;PMS_P1;PMS_P2;Temp;Humidity;BMP_temperature;BMP_pressure;BME280_temperature;BME280_humidity;BME280_pressure;Samples;Min_cycle;Max_cycle;Signal;HPM_P1;HPM_P2
2023/07/25 00:00:41;;;;;;;9.85;5.65;;;;;;;;;;5019521;28;20902;-63
2023/07/25 00:03:08;;;;;;;11.40;6.05;;;;;;;;;;5022036;28;20423;-63
2023/07/25 00:05:35;;;;;;;10.65;6.00;;;;;;;;;;5020061;28;20436;-63
2023/07/25 00:08:04;;;;;;;10.40;5.88;;;;;;;;;;5019468;28;20491;-63
2023/07/25 00:10:31;;;;;;;9.90;6.05;;;;;;;;;;5020918;28;20815;-63
2023/07/25 00:12:58;;;;;;;11.43;6.65;;;;;;;;;;5018481;28;20421;-63
2023/07/25 00:15:25;;;;;;;11.27;6.72;;;;;;;;;;5011490;28;20408;-63
2023/07/25 00:17:52;;;;;;;13.43;7.05;;;;;;;;;;5027834;28;20422;-63
2023/07/25 00:20:19;;;;;;;14.13;6.97;;;;;;;;;;5018901;28;20488;-63
2023/07/25 00:22:46;;;;;;;9.88;6.70;;;;;;;;;;5023547;28;20818;-63
2023/07/25 00:25:15;;;;;;;11.35;6.57;;;;;;;;;;5017882;28;20486;-63
2023/07/25 00:27:42;;;;;;;11.25;6.60;;;;;;;;;;5010687;28;20824;-63
2023/07/25 00:30:10;;;;;;;11.77;6.78;;;;;;;;;;5010458;28;20412;-63
2023/07/25 00:32:37;;;;;;;9.50;6.40;;;;;;;;;;5016750;28;20489;-63
2023/07/25 00:35:04;;;;;;;13.15;6.85;;;;;;;;;;5021198;28;20415;-63
2023/07/25 00:37:32;;;;;;;9.65;6.55;;;;;;;;;;5023146;28;20426;-63
2023/07/25 00:39:59;;;;;;;8.43;6.30;;;;;;;;;;5025037;28;20831;-63
2023/07/25 00:42:27;;;;;;;9.35;6.13;;;;;;;;;;5025829;28;20418;-63
2023/07/25 00:44:54;;;;;;;11.00;6.60;;;;;;;;;;5024518;28;20962;-63
2023/07/25 00:47:23;;;;;;;10.23;6.38;;;;;;;;;;5025272;28;20424;-62
2023/07/25 00:49:50;;;;;;;11.30;6.65;;;;;;;;;;5021051;28;20919;-62
2023/07/25 00:52:18;;;;;;;12.82;7.13;;;;;;;;;;5018718;28;20423;-62
2023/07/25 00:54:47;;;;;;;12.20;6.97;;;;;;;;;;5023282;28;20465;-63
2023/07/25 00:57:14;;;;;;;11.57;6.72;;;;;;;;;;5023897;28;20804;-63
2023/07/25 00:59:42;;;;;;;11.73;6.70;;;;;;;;;;5022673;28;20417;-63
2023/07/25 01:02:10;;;;;;;10.73;6.38;;;;;;;;;;5026036;28;20423;-63
2023/07/25 01:04:38;;;;;;;11.77;6.50;;;;;;;;;;5031357;28;20435;-62
2023/07/25 01:07:05;;;;;;;11.32;5.97;;;;;;;;;;5014130;28;20433;-62
2023/07/25 01:09:36;;;;;;;11.95;6.55;;;;;;;;;;5023902;28;20487;-66
2023/07/25 01:12:03;;;;;;;8.25;5.85;;;;;;;;;;5020600;28;20791;-62
2023/07/25 01:14:32;;;;;;;11.63;6.22;;;;;;;;;;5034777;28;20984;-62
2023/07/25 01:17:00;;;;;;;12.27;6.57;;;;;;;;;;5031394;28;20502;-63
2023/07/25 01:19:29;;;;;;;10.98;5.93;;;;;;;;;;5030505;28;20892;-62
2023/07/25 01:21:57;;;;;;;12.63;5.30;;;;;;;;;;5023665;28;21113;-63
2023/07/25 01:24:25;;;;;;;8.35;5.20;;;;;;;;;;5025597;28;20418;-64
2023/07/25 01:26:52;;;;;;;9.23;5.35;;;;;;;;;;5021432;28;20506;-63
2023/07/25 01:29:19;;;;;;;10.13;5.20;;;;;;;;;;5024989;28;20430;-63
2023/07/25 01:31:46;;;;;;;10.20;5.05;;;;;;;;;;5023097;28;20753;-63
2023/07/25 01:34:13;;;;;;;9.02;4.95;;;;;;;;;;5022018;28;20480;-62
2023/07/25 01:36:40;;;;;;;9.98;5.45;;;;;;;;;;5022815;28;20411;-61
2023/07/25 01:39:07;;;;;;;11.13;5.22;;;;;;;;;;5024700;28;20419;-63
2023/07/25 01:41:36;;;;;;;8.63;5.60;;;;;;;;;;5025490;28;20451;-64
2023/07/25 01:44:03;;;;;;;8.77;5.87;;;;;;;;;;5021374;28;20420;-63
2023/07/25 01:46:30;;;;;;;11.40;6.22;;;;;;;;;;5019344;28;20429;-63
2023/07/25 01:48:57;;;;;;;10.05;6.22;;;;;;;;;;5035779;28;21140;-62
2023/07/25 01:51:24;;;;;;;14.23;6.43;;;;;;;;;;5022567;28;20472;-61
2023/07/25 01:53:53;;;;;;;12.77;6.82;;;;;;;;;;5023128;28;20489;-61
2023/07/25 01:56:20;;;;;;;16.35;7.30;;;;;;;;;;5023994;28;20415;-60
2023/07/25 01:58:49;;;;;;;10.50;6.45;;;;;;;;;;5021370;28;20928;-60
2023/07/25 02:01:16;;;;;;;13.23;6.27;;;;;;;;;;5023289;28;20517;-60
2023/07/25 02:03:43;;;;;;;11.77;6.07;;;;;;;;;;5012994;28;20833;-62
2023/07/25 02:06:10;;;;;;;14.30;6.47;;;;;;;;;;5016301;28;20429;-59
2023/07/25 02:08:37;;;;;;;13.63;6.50;;;;;;;;;;5023826;28;20488;-61
2023/07/25 02:11:04;;;;;;;11.10;6.47;;;;;;;;;;5021720;28;20447;-61
2023/07/25 02:13:31;;;;;;;13.20;6.70;;;;;;;;;;5021401;28;20890;-60
2023/07/25 02:15:59;;;;;;;10.75;5.97;;;;;;;;;;5026125;28;20410;-60
2023/07/25 02:18:26;;;;;;;13.70;6.50;;;;;;;;;;5030958;28;20424;-61
2023/07/25 02:20:53;;;;;;;11.98;6.40;;;;;;;;;;5020311;28;20893;-60
2023/07/25 02:23:20;;;;;;;11.30;6.13;;;;;;;;;;5022536;28;20415;-61
2023/07/25 02:25:47;;;;;;;13.32;5.50;;;;;;;;;;5023080;28;20430;-60
2023/07/25 02:28:14;;;;;;;10.80;5.57;;;;;;;;;;5021797;28;20435;-61
2023/07/25 02:30:41;;;;;;;10.98;5.60;;;;;;;;;;5024223;28;20421;-61
2023/07/25 02:33:10;;;;;;;13.40;6.37;;;;;;;;;;5028905;28;20557;-61
2023/07/25 02:35:37;;;;;;;11.88;6.20;;;;;;;;;;5026987;28;20444;-61
2023/07/25 02:38:04;;;;;;;15.20;6.75;;;;;;;;;;5023193;28;20836;-62
2023/07/25 02:40:31;;;;;;;11.53;6.53;;;;;;;;;;5022209;28;20419;-62
2023/07/25 02:42:58;;;;;;;12.30;6.28;;;;;;;;;;5027069;28;20415;-61
2023/07/25 02:45:25;;;;;;;12.70;6.15;;;;;;;;;;5013458;28;20470;-61
2023/07/25 02:47:52;;;;;;;11.48;5.78;;;;;;;;;;5035445;28;20417;-62
2023/07/25 02:50:20;;;;;;;12.88;6.22;;;;;;;;;;5024791;28;20424;-62
2023/07/25 02:52:47;;;;;;;12.20;6.53;;;;;;;;;;5021553;28;20522;-62
2023/07/25 02:55:14;;;;;;;10.40;6.07;;;;;;;;;;5022968;28;20414;-62
2023/07/25 02:57:41;;;;;;;16.63;6.38;;;;;;;;;;5021121;28;20424;-62
2023/07/25 03:00:09;;;;;;;13.40;6.78;;;;;;;;;;5020843;28;20447;-62
2023/07/25 03:02:36;;;;;;;10.88;6.13;;;;;;;;;;5022773;28;20477;-60
2023/07/25 03:05:03;;;;;;;15.38;6.32;;;;;;;;;;5021781;28;20425;-62
2023/07/25 03:07:31;;;;;;;12.38;5.65;;;;;;;;;;5022863;28;20442;-63
2023/07/25 03:09:59;;;;;;;11.40;5.67;;;;;;;;;;5020992;28;20473;-62
2023/07/25 03:12:26;;;;;;;13.57;6.07;;;;;;;;;;5020684;28;20750;-61
2023/07/25 03:14:53;;;;;;;10.13;5.80;;;;;;;;;;5020211;28;20516;-62
2023/07/25 03:17:19;;;;;;;11.60;5.97;;;;;;;;;;5026687;28;20445;-62
2023/07/25 03:19:47;;;;;;;10.25;6.00;;;;;;;;;;5027000;28;20872;-61
2023/07/25 03:22:14;;;;;;;12.23;6.15;;;;;;;;;;5021234;28;20430;-63
2023/07/25 03:24:42;;;;;;;11.38;6.50;;;;;;;;;;5022554;28;20418;-62
2023/07/25 03:27:09;;;;;;;13.05;6.50;;;;;;;;;;5020896;28;20431;-62
2023/07/25 03:29:36;;;;;;;13.93;7.03;;;;;;;;;;5020187;28;20955;-62
2023/07/25 03:32:03;;;;;;;11.73;6.53;;;;;;;;;;5022062;28;20476;-61
2023/07/25 03:34:30;;;;;;;11.80;6.32;;;;;;;;;;5020923;28;20490;-62
2023/07/25 03:36:57;;;;;;;14.27;6.55;;;;;;;;;;5019817;28;20416;-62
2023/07/25 03:39:24;;;;;;;10.27;6.28;;;;;;;;;;5021857;28;20434;-60
2023/07/25 03:41:52;;;;;;;13.00;6.80;;;;;;;;;;5021550;28;20492;-61
2023/07/25 03:44:20;;;;;;;10.70;6.20;;;;;;;;;;5011222;28;20413;-62
2023/07/25 03:46:47;;;;;;;13.30;6.80;;;;;;;;;;5029681;28;20474;-62
2023/07/25 03:49:14;;;;;;;16.27;7.20;;;;;;;;;;5026004;28;20496;-61
2023/07/25 03:51:41;;;;;;;13.40;7.17;;;;;;;;;;5020085;28;20421;-62
2023/07/25 03:54:08;;;;;;;15.40;7.47;;;;;;;;;;5019732;28;20474;-60
2023/07/25 03:56:35;;;;;;;15.07;8.07;;;;;;;;;;5021877;28;20415;-62
2023/07/25 03:59:04;;;;;;;14.27;7.32;;;;;;;;;;5021084;28;21076;-61
2023/07/25 04:01:31;;;;;;;13.00;7.72;;;;;;;;;;5021219;28;20483;-62
2023/07/25 04:03:58;;;;;;;14.15;7.50;;;;;;;;;;5020857;28;20424;-60
2023/07/25 04:06:25;;;;;;;23.40;17.20;;;;;;;;;;5019279;28;20510;-59
2023/07/25 04:08:52;;;;;;;12.70;7.63;;;;;;;;;;5022478;28;20477;-61
2023/07/25 04:11:19;;;;;;;16.10;7.93;;;;;;;;;;5021282;28;20422;-62
2023/07/25 04:13:46;;;;;;;17.05;8.25;;;;;;;;;;5010466;28;20420;-60
2023/07/25 04:16:15;;;;;;;14.88;7.97;;;;;;;;;;5021225;28;20896;-63
2023/07/25 04:18:41;;;;;;;12.30;7.57;;;;;;;;;;5028108;28;20466;-62
2023/07/25 04:21:08;;;;;;;13.80;7.43;;;;;;;;;;5022314;28;20474;-60
2023/07/25 04:23:35;;;;;;;12.40;7.50;;;;;;;;;;5020674;28;20490;-62
2023/07/25 04:26:02;;;;;;;11.77;7.20;;;;;;;;;;5025998;28;20445;-62
2023/07/25 04:28:29;;;;;;;10.52;7.45;;;;;;;;;;5027489;28;20919;-62
2023/07/25 04:30:56;;;;;;;12.30;7.38;;;;;;;;;;5022548;28;20418;-61
2023/07/25 04:33:25;;;;;;;15.10;8.05;;;;;;;;;;5020304;28;20422;-62
2023/07/25 04:35:52;;;;;;;17.08;8.15;;;;;;;;;;5021126;28;20453;-62
2023/07/25 04:38:19;;;;;;;16.75;8.27;;;;;;;;;;5021750;28;20422;-62
2023/07/25 04:40:46;;;;;;;14.73;8.57;;;;;;;;;;5021525;28;20835;-62
2023/07/25 04:43:13;;;;;;;13.73;8.27;;;;;;;;;;5019513;28;20472;-63
2023/07/25 04:45:40;;;;;;;13.90;9.37;;;;;;;;;;5030997;28;20517;-62
2023/07/25 04:48:06;;;;;;;15.30;8.73;;;;;;;;;;5032010;28;20478;-64
2023/07/25 04:50:35;;;;;;;13.75;8.32;;;;;;;;;;5025521;28;20411;-63
2023/07/25 04:53:02;;;;;;;16.55;8.55;;;;;;;;;;5010804;28;20424;-63
2023/07/25 04:55:29;;;;;;;15.60;9.38;;;;;;;;;;5023704;28;20420;-62
2023/07/25 04:57:56;;;;;;;14.65;8.93;;;;;;;;;;5019321;28;20422;-64
2023/07/25 05:00:23;;;;;;;12.82;8.35;;;;;;;;;;5022427;28;20780;-64
2023/07/25 05:02:50;;;;;;;16.92;8.70;;;;;;;;;;5027627;28;20426;-64
2023/07/25 05:05:17;;;;;;;15.27;8.73;;;;;;;;;;5029096;28;20422;-63
2023/07/25 05:07:45;;;;;;;14.75;8.25;;;;;;;;;;5026785;28;20443;-62
2023/07/25 05:10:12;;;;;;;15.32;7.90;;;;;;;;;;5018386;28;20874;-61
2023/07/25 05:12:39;;;;;;;13.73;8.07;;;;;;;;;;5022379;28;20484;-64
2023/07/25 05:15:07;;;;;;;11.70;7.80;;;;;;;;;;5032453;28;20424;-62
2023/07/25 05:17:34;;;;;;;13.82;9.05;;;;;;;;;;5024381;28;20421;-63
2023/07/25 05:20:01;;;;;;;14.63;9.00;;;;;;;;;;5024327;28;20420;-62
2023/07/25 05:22:28;;;;;;;15.27;8.43;;;;;;;;;;5027357;28;20505;-62
2023/07/25 05:24:56;;;;;;;15.93;8.80;;;;;;;;;;5017441;28;20781;-63
2023/07/25 05:27:23;;;;;;;18.33;8.82;;;;;;;;;;5017707;28;20430;-62
2023/07/25 05:29:50;;;;;;;15.85;8.70;;;;;;;;;;5016846;28;20428;-62
2023/07/25 05:32:17;;;;;;;14.75;9.00;;;;;;;;;;5021194;28;20434;-62
2023/07/25 05:34:44;;;;;;;12.70;8.40;;;;;;;;;;5017886;28;20424;-62
2023/07/25 05:37:11;;;;;;;14.73;9.05;;;;;;;;;;5019318;28;20953;-63
2023/07/25 05:39:38;;;;;;;14.38;8.98;;;;;;;;;;5019430;28;20426;-64
2023/07/25 05:42:07;;;;;;;19.00;10.20;;;;;;;;;;5021630;28;20484;-63
2023/07/25 05:44:34;;;;;;;17.10;10.18;;;;;;;;;;5032167;28;20945;-65
2023/07/25 05:47:05;;;;;;;16.20;10.85;;;;;;;;;;5027812;28;20440;-66
2023/07/25 05:49:32;;;;;;;17.63;11.68;;;;;;;;;;5033557;28;20467;-68
2023/07/25 05:51:59;;;;;;;13.38;10.18;;;;;;;;;;5031561;28;20422;-64
2023/07/25 05:54:26;;;;;;;16.23;9.35;;;;;;;;;;5026960;28;20426;-69
2023/07/25 05:56:52;;;;;;;16.08;9.98;;;;;;;;;;5025413;28;20415;-65
2023/07/25 05:59:21;;;;;;;18.27;9.13;;;;;;;;;;5025869;28;20819;-65
2023/07/25 06:01:48;;;;;;;13.63;8.10;;;;;;;;;;5028173;28;20924;-64
2023/07/25 06:04:15;;;;;;;15.68;8.05;;;;;;;;;;5025955;28;20454;-66
2023/07/25 06:06:42;;;;;;;12.25;6.40;;;;;;;;;;5019562;28;20424;-68
2023/07/25 06:09:09;;;;;;;12.00;4.75;;;;;;;;;;5027934;28;20418;-63
2023/07/25 06:11:36;;;;;;;10.48;5.05;;;;;;;;;;5024497;28;20415;-61
2023/07/25 06:14:03;;;;;;;10.43;4.57;;;;;;;;;;5022033;28;20956;-63
2023/07/25 06:16:32;;;;;;;8.98;5.03;;;;;;;;;;5021613;28;20432;-63
2023/07/25 06:18:59;;;;;;;7.30;4.03;;;;;;;;;;5029125;28;20830;-63
2023/07/25 06:21:26;;;;;;;12.00;4.50;;;;;;;;;;5023832;28;20472;-62
2023/07/25 06:23:53;;;;;;;11.90;4.95;;;;;;;;;;5020271;28;20412;-63
2023/07/25 06:26:20;;;;;;;9.80;4.05;;;;;;;;;;5020804;28;20424;-62
2023/07/25 06:28:47;;;;;;;9.75;4.28;;;;;;;;;;5025579;28;20445;-63
2023/07/25 06:31:14;;;;;;;12.88;4.20;;;;;;;;;;5024777;28;20427;-63
2023/07/25 06:33:42;;;;;;;8.57;4.45;;;;;;;;;;5019299;28;20890;-63
2023/07/25 06:36:09;;;;;;;9.90;3.97;;;;;;;;;;5026186;28;20415;-63
2023/07/25 06:38:36;;;;;;;8.32;3.83;;;;;;;;;;5022753;28;21061;-63
2023/07/25 06:41:03;;;;;;;8.57;4.13;;;;;;;;;;5019416;28;20428;-63
2023/07/25 06:43:31;;;;;;;11.18;4.20;;;;;;;;;;5021605;28;20426;-63
2023/07/25 06:45:58;;;;;;;9.60;3.80;;;;;;;;;;5019694;28;20426;-63
2023/07/25 06:48:25;;;;;;;10.90;3.78;;;;;;;;;;5027923;28;20476;-63
2023/07/25 06:50:53;;;;;;;9.13;3.60;;;;;;;;;;5027437;28;20423;-62
2023/07/25 06:53:20;;;;;;;9.48;3.63;;;;;;;;;;5026934;28;20467;-63
2023/07/25 06:55:47;;;;;;;9.25;3.22;;;;;;;;;;5030476;28;20424;-63
2023/07/25 06:58:15;;;;;;;10.10;3.67;;;;;;;;;;5028647;28;20849;-65
2023/07/25 07:00:42;;;;;;;8.55;3.30;;;;;;;;;;5021404;28;20465;-66
2023/07/25 07:03:09;;;;;;;9.13;3.67;;;;;;;;;;5021809;28;20426;-66
2023/07/25 07:05:36;;;;;;;9.85;3.20;;;;;;;;;;5020299;28;20786;-66
2023/07/25 07:08:04;;;;;;;7.68;2.83;;;;;;;;;;5019772;28;20781;-66
2023/07/25 07:10:33;;;;;;;8.52;3.22;;;;;;;;;;5019656;28;20420;-66
2023/07/25 07:13:00;;;;;;;8.18;3.15;;;;;;;;;;5025571;28;20462;-66
2023/07/25 07:15:27;;;;;;;7.72;2.72;;;;;;;;;;5019364;28;20750;-66
2023/07/25 07:17:54;;;;;;;9.18;2.28;;;;;;;;;;5031430;28;20880;-65
2023/07/25 07:20:22;;;;;;;9.98;2.60;;;;;;;;;;5019354;28;20424;-67
2023/07/25 07:22:49;;;;;;;7.68;2.50;;;;;;;;;;5024120;28;20827;-69
2023/07/25 07:25:17;;;;;;;6.65;2.63;;;;;;;;;;5021117;28;20414;-65
2023/07/25 07:27:44;;;;;;;10.57;2.97;;;;;;;;;;5019231;28;20806;-65
2023/07/25 07:30:11;;;;;;;4.88;2.50;;;;;;;;;;5019626;28;20416;-66
2023/07/25 07:32:38;;;;;;;10.80;2.70;;;;;;;;;;5020785;28;20423;-66
2023/07/25 07:35:06;;;;;;;7.72;2.75;;;;;;;;;;5022794;28;20424;-66
2023/07/25 07:37:33;;;;;;;10.07;2.90;;;;;;;;;;5018552;28;20424;-67
2023/07/25 07:40:00;;;;;;;7.07;2.97;;;;;;;;;;5020941;28;20411;-67
2023/07/25 07:42:28;;;;;;;7.82;2.75;;;;;;;;;;5020618;28;20781;-68
2023/07/25 07:44:55;;;;;;;9.02;2.90;;;;;;;;;;5021925;28;20785;-67
2023/07/25 07:47:22;;;;;;;9.20;2.85;;;;;;;;;;5025841;28;20432;-62
2023/07/25 07:49:49;;;;;;;8.82;2.45;;;;;;;;;;5030471;28;20429;-62
2023/07/25 07:52:16;;;;;;;6.05;2.38;;;;;;;;;;5024908;28;20426;-62
2023/07/25 07:54:43;;;;;;;8.80;2.65;;;;;;;;;;5025197;28;20937;-64
2023/07/25 07:57:10;;;;;;;7.23;2.40;;;;;;;;;;5025817;28;20420;-64
2023/07/25 07:59:39;;;;;;;9.57;2.50;;;;;;;;;;5020969;28;20428;-64
2023/07/25 08:02:06;;;;;;;10.10;2.60;;;;;;;;;;5021500;28;20424;-64
2023/07/25 08:04:33;;;;;;;10.48;2.70;;;;;;;;;;5018075;28;20420;-63
2023/07/25 08:07:00;;;;;;;6.85;2.70;;;;;;;;;;5018537;28;20420;-61
2023/07/25 08:09:27;;;;;;;5.80;2.70;;;;;;;;;;5020714;28;20419;-62
2023/07/25 08:11:54;;;;;;;6.65;2.33;;;;;;;;;;5020263;28;20415;-62
2023/07/25 08:14:21;;;;;;;7.45;2.38;;;;;;;;;;5028175;28;20426;-61
2023/07/25 08:16:51;;;;;;;6.65;2.03;;;;;;;;;;5027033;28;20782;-63
2023/07/25 08:19:18;;;;;;;8.40;2.50;;;;;;;;;;5025264;28;20422;-66
2023/07/25 08:21:45;;;;;;;6.85;2.47;;;;;;;;;;5027835;28;20418;-66
2023/07/25 08:24:12;;;;;;;8.65;2.58;;;;;;;;;;5032648;28;20530;-66
2023/07/25 08:26:39;;;;;;;6.95;2.58;;;;;;;;;;5022369;28;20763;-63
2023/07/25 08:29:06;;;;;;;7.10;2.42;;;;;;;;;;5020945;28;20432;-69
2023/07/25 08:31:33;;;;;;;5.70;2.15;;;;;;;;;;5020648;28;20418;-67
2023/07/25 08:34:01;;;;;;;8.82;2.53;;;;;;;;;;5019580;28;20427;-66
2023/07/25 08:36:28;;;;;;;8.00;2.25;;;;;;;;;;5020529;28;20415;-67
2023/07/25 08:38:56;;;;;;;8.90;2.17;;;;;;;;;;5019252;28;20426;-64
2023/07/25 08:41:28;;;;;;;8.68;2.83;;;;;;;;;;5022093;28;20454;-65
2023/07/25 08:43:56;;;;;;;6.50;2.42;;;;;;;;;;5020439;28;20862;-64
2023/07/25 08:46:27;;;;;;;9.68;2.88;;;;;;;;;;5033406;28;20419;-65
2023/07/25 08:48:56;;;;;;;7.07;2.88;;;;;;;;;;5019280;28;20946;-63
2023/07/25 08:51:26;;;;;;;8.40;2.60;;;;;;;;;;5021771;28;20900;-64
2023/07/25 08:53:57;;;;;;;6.60;2.37;;;;;;;;;;5008975;28;20476;-68
2023/07/25 08:56:24;;;;;;;8.18;2.67;;;;;;;;;;5018126;28;20421;-65
2023/07/25 08:58:52;;;;;;;6.38;2.70;;;;;;;;;;5021668;28;20416;-65
2023/07/25 09:01:20;;;;;;;10.73;2.72;;;;;;;;;;5018499;28;20417;-65
2023/07/25 09:03:47;;;;;;;6.00;3.00;;;;;;;;;;5020489;28;20440;-62
2023/07/25 09:06:14;;;;;;;7.20;3.20;;;;;;;;;;5028662;28;20415;-64
2023/07/25 09:08:43;;;;;;;7.40;3.10;;;;;;;;;;5027060;28;20879;-63
2023/07/25 09:11:10;;;;;;;10.25;3.03;;;;;;;;;;5022895;28;20914;-63
2023/07/25 09:13:38;;;;;;;7.65;2.83;;;;;;;;;;5027630;28;20444;-65
2023/07/25 09:16:05;;;;;;;6.72;3.30;;;;;;;;;;5026206;28;20445;-64
2023/07/25 09:18:32;;;;;;;7.40;3.00;;;;;;;;;;5030876;28;20420;-64
2023/07/25 09:20:59;;;;;;;4.97;2.78;;;;;;;;;;5036297;28;20428;-65
2023/07/25 09:23:27;;;;;;;5.28;2.85;;;;;;;;;;5021901;28;20424;-65
2023/07/25 09:26:05;;;;;;;6.50;2.85;;;;;;;;;;5023752;28;20430;-64
2023/07/25 09:28:32;;;;;;;6.22;2.92;;;;;;;;;;5020638;28;20428;-64
2023/07/25 09:30:59;;;;;;;8.60;3.08;;;;;;;;;;5013074;28;20432;-64
2023/07/25 09:33:27;;;;;;;6.47;3.22;;;;;;;;;;5012363;28;20424;-64
2023/07/25 09:35:54;;;;;;;5.57;2.65;;;;;;;;;;5012771;28;20496;-64
2023/07/25 09:38:21;;;;;;;6.82;2.90;;;;;;;;;;5012586;28;20516;-64
2023/07/25 09:40:49;;;;;;;5.03;2.60;;;;;;;;;;5021262;28;20425;-67
2023/07/25 09:43:24;;;;;;;6.93;2.50;;;;;;;;;;5021323;28;20515;-66
2023/07/25 09:45:51;;;;;;;5.05;2.10;;;;;;;;;;5026053;28;20421;-67
2023/07/25 09:48:18;;;;;;;5.78;2.15;;;;;;;;;;5030411;28;20427;-63
2023/07/25 09:50:45;;;;;;;5.05;2.28;;;;;;;;;;5023985;28;20415;-63
2023/07/25 09:53:13;;;;;;;6.20;2.28;;;;;;;;;;5023528;28;20422;-63
2023/07/25 09:55:40;;;;;;;5.18;2.20;;;;;;;;;;5022403;28;20446;-62
2023/07/25 09:58:07;;;;;;;5.00;2.17;;;;;;;;;;5026506;28;20419;-62
2023/07/25 10:00:35;;;;;;;6.23;2.30;;;;;;;;;;5035142;28;20418;-65
2023/07/25 10:03:03;;;;;;;7.10;2.90;;;;;;;;;;5023484;28;20431;-66
2023/07/25 10:05:30;;;;;;;5.78;2.45;;;;;;;;;;5023891;28;20913;-65
2023/07/25 10:07:58;;;;;;;7.55;3.15;;;;;;;;;;5027252;28;20939;-64
2023/07/25 10:10:25;;;;;;;6.50;3.00;;;;;;;;;;5031225;28;20409;-62
2023/07/25 10:12:53;;;;;;;6.88;2.40;;;;;;;;;;5031257;28;20425;-63
2023/07/25 10:15:20;;;;;;;8.18;2.83;;;;;;;;;;5023952;28;20430;-63
2023/07/25 10:17:49;;;;;;;7.35;2.40;;;;;;;;;;5026353;28;20424;-63
2023/07/25 10:20:23;;;;;;;5.47;2.20;;;;;;;;;;5023399;28;20415;-63
2023/07/25 10:22:51;;;;;;;7.80;2.30;;;;;;;;;;5022016;28;20459;-63
2023/07/25 10:25:22;;;;;;;7.50;2.50;;;;;;;;;;5025681;28;20446;-61
2023/07/25 10:27:54;;;;;;;4.05;2.03;;;;;;;;;;5023860;28;20427;-66
2023/07/25 10:30:24;;;;;;;5.97;2.23;;;;;;;;;;5022307;28;20490;-65
2023/07/25 10:32:54;;;;;;;5.10;2.58;;;;;;;;;;5023833;28;20430;-67
2023/07/25 10:35:35;;;;;;;5.50;2.17;;;;;;;;;;5019743;28;20947;-64
2023/07/25 10:38:08;;;;;;;4.60;2.10;;;;;;;;;;5022093;28;20415;-66
2023/07/25 10:40:51;;;;;;;5.60;2.28;;;;;;;;;;5018639;28;20456;-70
2023/07/25 10:43:18;;;;;;;8.38;2.95;;;;;;;;;;5015566;28;20450;-69
2023/07/25 10:45:50;;;;;;;5.97;2.42;;;;;;;;;;5023452;28;20418;-66
2023/07/25 10:48:34;;;;;;;6.60;3.42;;;;;;;;;;5029482;28;20434;-66
2023/07/25 10:51:02;;;;;;;7.57;3.88;;;;;;;;;;5026027;28;20415;-65
2023/07/25 10:53:29;;;;;;;5.82;3.30;;;;;;;;;;5027143;28;20515;-65
2023/07/25 10:56:09;;;;;;;7.80;3.60;;;;;;;;;;5029754;28;20426;-66
2023/07/25 10:58:37;;;;;;;5.90;3.03;;;;;;;;;;5024310;28;20414;-67
2023/07/25 11:01:04;;;;;;;7.00;3.20;;;;;;;;;;5024456;28;20427;-66
2023/07/25 11:03:33;;;;;;;6.22;3.10;;;;;;;;;;5020779;28;20422;-64
2023/07/25 11:06:19;;;;;;;9.65;3.00;;;;;;;;;;5018485;28;20425;-64
2023/07/25 11:08:46;;;;;;;8.15;3.25;;;;;;;;;;5019991;28;20536;-67
2023/07/25 11:11:14;;;;;;;7.40;3.20;;;;;;;;;;5020822;28;20502;-67
2023/07/25 11:13:42;;;;;;;7.13;3.00;;;;;;;;;;5024144;28;20432;-68
2023/07/25 11:16:11;;;;;;;5.97;2.97;;;;;;;;;;5021330;28;20415;-69
2023/07/25 11:18:50;;;;;;;6.82;3.10;;;;;;;;;;5029909;28;20417;-66
2023/07/25 11:21:17;;;;;;;5.97;2.75;;;;;;;;;;5020176;28;20422;-67
2023/07/25 11:23:44;;;;;;;7.43;2.75;;;;;;;;;;5018965;28;20431;-68
2023/07/25 11:26:12;;;;;;;9.13;2.90;;;;;;;;;;5021759;28;20427;-68
2023/07/25 11:28:39;;;;;;;8.63;3.17;;;;;;;;;;5033249;28;20425;-68
2023/07/25 11:31:06;;;;;;;6.90;2.80;;;;;;;;;;5036999;28;20784;-70
2023/07/25 11:33:37;;;;;;;5.82;2.22;;;;;;;;;;5029173;28;20427;-69
2023/07/25 11:36:06;;;;;;;5.63;2.20;;;;;;;;;;5026953;28;20420;-69
2023/07/25 11:38:35;;;;;;;6.18;2.45;;;;;;;;;;5028311;28;20415;-69
2023/07/25 11:41:03;;;;;;;7.53;2.78;;;;;;;;;;5020692;28;20452;-69
2023/07/25 11:43:30;;;;;;;6.75;2.80;;;;;;;;;;5025650;28;20424;-70
2023/07/25 11:45:57;;;;;;;7.78;3.03;;;;;;;;;;5035363;28;20416;-70
2023/07/25 11:48:25;;;;;;;6.20;3.00;;;;;;;;;;5036949;28;20431;-63
2023/07/25 11:50:52;;;;;;;5.75;3.25;;;;;;;;;;5027204;28;20421;-63
2023/07/25 11:53:22;;;;;;;6.63;3.88;;;;;;;;;;5028460;28;20422;-65
2023/07/25 11:55:50;;;;;;;7.03;3.80;;;;;;;;;;5025290;28;20911;-67
2023/07/25 11:58:19;;;;;;;7.30;3.60;;;;;;;;;;5026423;28;20422;-64
2023/07/25 12:00:48;;;;;;;8.07;3.80;;;;;;;;;;5021195;28;20436;-63
2023/07/25 12:03:18;;;;;;;7.65;4.10;;;;;;;;;;5021259;28;20445;-62
2023/07/25 12:05:51;;;;;;;8.30;3.72;;;;;;;;;;5021880;28;20426;-64
2023/07/25 12:08:31;;;;;;;7.95;3.88;;;;;;;;;;5020304;28;20422;-64
2023/07/25 12:11:01;;;;;;;9.68;4.50;;;;;;;;;;5020931;28;20516;-63
2023/07/25 12:13:28;;;;;;;8.65;3.95;;;;;;;;;;5020160;28;20447;-63
2023/07/25 12:15:56;;;;;;;10.07;3.87;;;;;;;;;;5024277;28;20420;-63
2023/07/25 12:18:26;;;;;;;8.70;3.83;;;;;;;;;;5028146;28;20432;-61
2023/07/25 12:20:53;;;;;;;10.82;3.83;;;;;;;;;;5020776;28;20446;-62
2023/07/25 12:23:27;;;;;;;7.13;3.35;;;;;;;;;;5019707;28;20416;-62
2023/07/25 12:25:56;;;;;;;9.63;3.47;;;;;;;;;;5027830;28;20498;-62
2023/07/25 12:28:23;;;;;;;8.02;3.55;;;;;;;;;;5022173;28;20924;-62
2023/07/25 12:30:50;;;;;;;9.32;3.15;;;;;;;;;;5022735;28;20427;-63
2023/07/25 12:33:17;;;;;;;8.45;3.05;;;;;;;;;;5024499;28;20427;-64
2023/07/25 12:35:44;;;;;;;6.88;2.80;;;;;;;;;;5023167;28;20491;-62
2023/07/25 12:38:12;;;;;;;7.75;3.33;;;;;;;;;;5019900;28;20426;-63
2023/07/25 12:40:39;;;;;;;8.38;3.10;;;;;;;;;;5018648;28;20417;-65
2023/07/25 12:43:07;;;;;;;9.02;2.78;;;;;;;;;;5021752;28;20419;-65
2023/07/25 12:45:34;;;;;;;7.22;2.70;;;;;;;;;;5021737;28;20668;-67
2023/07/25 12:48:02;;;;;;;9.43;2.65;;;;;;;;;;5023626;28;20419;-65
2023/07/25 12:50:30;;;;;;;5.97;2.22;;;;;;;;;;5023313;28;20440;-64
2023/07/25 12:52:57;;;;;;;5.95;2.40;;;;;;;;;;5021671;28;20417;-62
2023/07/25 12:55:24;;;;;;;6.67;2.63;;;;;;;;;;5023908;28;20422;-62
2023/07/25 12:57:52;;;;;;;7.78;2.15;;;;;;;;;;5024179;28;20414;-62
2023/07/25 13:00:20;;;;;;;9.02;2.60;;;;;;;;;;5025209;28;20407;-62
2023/07/25 13:02:47;;;;;;;5.53;2.57;;;;;;;;;;5029549;28;20791;-65
2023/07/25 13:05:14;;;;;;;7.00;2.58;;;;;;;;;;5034842;28;20930;-62
2023/07/25 13:07:41;;;;;;;8.50;2.88;;;;;;;;;;5032412;28;20419;-62
2023/07/25 13:10:10;;;;;;;7.00;2.47;;;;;;;;;;5037094;28;20430;-62
2023/07/25 13:12:37;;;;;;;6.75;2.33;;;;;;;;;;5029462;28;20416;-62
2023/07/25 13:15:04;;;;;;;6.15;2.35;;;;;;;;;;5036443;28;20427;-62
2023/07/25 13:17:33;;;;;;;7.20;2.53;;;;;;;;;;5029247;28;20426;-62
2023/07/25 13:20:01;;;;;;;7.45;2.05;;;;;;;;;;5031813;28;20461;-62
2023/07/25 13:22:29;;;;;;;5.40;2.15;;;;;;;;;;5031982;28;20523;-61
2023/07/25 13:24:58;;;;;;;7.15;2.30;;;;;;;;;;5035306;28;20773;-62
2023/07/25 13:27:25;;;;;;;5.80;1.60;;;;;;;;;;5031931;28;20505;-62
2023/07/25 13:29:52;;;;;;;4.50;1.27;;;;;;;;;;5036383;28;20432;-62
2023/07/25 13:32:19;;;;;;;4.55;1.63;;;;;;;;;;5032220;28;20430;-62
2023/07/25 13:34:48;;;;;;;3.47;1.20;;;;;;;;;;5033795;28;20442;-62
2023/07/25 13:37:15;;;;;;;2.78;1.10;;;;;;;;;;5032369;28;20422;-61
2023/07/25 13:39:42;;;;;;;2.90;1.25;;;;;;;;;;5036014;28;20419;-62
2023/07/25 13:42:09;;;;;;;4.85;1.50;;;;;;;;;;5030935;28;20959;-62
2023/07/25 13:44:36;;;;;;;4.03;1.27;;;;;;;;;;5036705;28;20463;-62
2023/07/25 13:47:03;;;;;;;4.50;1.45;;;;;;;;;;5034788;28;20421;-62
2023/07/25 13:49:30;;;;;;;5.07;1.50;;;;;;;;;;5027680;28;20434;-62
2023/07/25 13:51:58;;;;;;;2.47;1.35;;;;;;;;;;5029439;28;20418;-62
2023/07/25 13:54:26;;;;;;;2.75;1.23;;;;;;;;;;5028507;28;20419;-62
2023/07/25 13:56:53;;;;;;;3.53;1.37;;;;;;;;;;5038236;28;20474;-62
2023/07/25 13:59:20;;;;;;;3.88;1.10;;;;;;;;;;5034635;28;20418;-62
2023/07/25 14:01:47;;;;;;;2.78;1.15;;;;;;;;;;5035622;28;20416;-62
2023/07/25 14:04:14;;;;;;;2.00;1.17;;;;;;;;;;5033036;28;20426;-62
2023/07/25 14:06:41;;;;;;;3.38;1.27;;;;;;;;;;5031161;28;20432;-65
2023/07/25 14:09:10;;;;;;;5.40;1.48;;;;;;;;;;5030168;28;20939;-65
2023/07/25 14:11:37;;;;;;;3.45;1.27;;;;;;;;;;5023079;28;20505;-66
2023/07/25 14:14:04;;;;;;;4.40;1.70;;;;;;;;;;5020921;28;20412;-63
2023/07/25 14:16:31;;;;;;;4.00;1.30;;;;;;;;;;5030171;28;20838;-63
2023/07/25 14:18:58;;;;;;;5.30;1.30;;;;;;;;;;5028785;28;20427;-62
2023/07/25 14:21:25;;;;;;;4.05;1.40;;;;;;;;;;5024084;28;20487;-63
2023/07/25 14:23:52;;;;;;;4.15;1.13;;;;;;;;;;5022514;28;20782;-64
2023/07/25 14:26:20;;;;;;;2.22;1.10;;;;;;;;;;5020442;28;20416;-62
2023/07/25 14:28:47;;;;;;;3.50;1.08;;;;;;;;;;5022185;28;20991;-63
2023/07/25 14:31:14;;;;;;;4.77;1.17;;;;;;;;;;5022758;28;20430;-64
2023/07/25 14:33:42;;;;;;;4.43;1.20;;;;;;;;;;5012163;28;20819;-64
2023/07/25 14:36:09;;;;;;;2.78;1.10;;;;;;;;;;5011197;28;20425;-66
2023/07/25 14:38:36;;;;;;;2.22;1.00;;;;;;;;;;5023145;28;20473;-65
2023/07/25 14:41:03;;;;;;;4.55;1.20;;;;;;;;;;5031742;28;20409;-65